Daihatsumaru — JD2764 — position and weather

sailwx.info

Track history (hours):
 
Tides and Currents Weather Stations Pressure Air Temp Water Temp Dewpoint Dewpoint Depression Visibility Wind Speed Wind Dir Waves Ship Positions

Daihatsumaru

Last reported at 2014-Oct-31 04:33 UTC. Time now 2014-Oct-31 17:47 UTC.
Position N 34°36' E 134°56'.

Length 106 m; draft 4.5 m.

Type: Cargo ship. MMSI: 431000701.

Date/timePositionNaut miles runAvg speedWind from/ knotsBaromVisibWave heightAir tempDewpointWater temp
2014-Oct-31 04:33N 34°36' E 134°56'1615.8
2014-Oct-31 03:33N 34°37' E 135°15'8 8.5
2014-Oct-31 02:33N 34°41' E 135°23'0 0.0
2014-Oct-31 01:25N 34°41' E 135°23'0 0.0
2014-Oct-31 00:24N 34°41' E 135°23'0 0.0
2014-Oct-30 23:31N 34°41' E 135°23'2 2.3
2014-Oct-30 22:34N 34°40' E 135°21'1 0.6
2014-Oct-30 21:28N 34°40' E 135°20'0 0.0
2014-Oct-30 20:22N 34°40' E 135°20'8 9.3
2014-Oct-30 19:33N 34°35' E 135°13'1413.6
2014-Oct-30 18:33N 34°36' E 134°57'116 4.4
2014-Oct-29 16:29N 33°59' E 132°44'11210.0
2014-Oct-29 05:17N 34°35' E 134°53'1115.0
2014-Oct-29 04:33N 34°36' E 135°06'1514.6
2014-Oct-29 03:33N 34°41' E 135°23'1 0.8
2014-Oct-29 02:29N 34°41' E 135°23'0 0.0
2014-Oct-29 01:29N 34°41' E 135°23'0 0.0
2014-Oct-29 00:29N 34°41' E 135°23'2 1.0
2014-Oct-28 22:33N 34°40' E 135°21'0 0.4
2014-Oct-28 21:18N 34°40' E 135°21'0 0.0
2014-Oct-28 20:30N 34°40' E 135°21'0 0.5
2014-Oct-28 19:33N 34°40' E 135°20'1413.8
2014-Oct-28 18:33N 34°35' E 135°05'12213.1
2014-Oct-28 09:14N 33°58' E 132°44'114 3.9
2014-Oct-27 04:16N 34°36' E 134°54'1013.9
2014-Oct-27 03:34N 34°36' E 135°06'1414.3
2014-Oct-27 02:33N 34°41' E 135°22'1 0.9
2014-Oct-27 01:30N 34°41' E 135°23'0 0.0
2014-Oct-27 00:30N 34°41' E 135°23'0 0.0
2014-Oct-26 22:30N 34°41' E 135°23'0 0.0
2014-Oct-26 21:24N 34°41' E 135°23'0 0.0
2014-Oct-26 20:30N 34°41' E 135°23'0 0.0
2014-Oct-26 19:30N 34°41' E 135°23'0 0.0
2014-Oct-26 18:30N 34°41' E 135°23'0 0.0
2014-Oct-26 17:30N 34°41' E 135°23'0 0.0
2014-Oct-26 16:24N 34°41' E 135°23'0 0.0
2014-Oct-26 15:30N 34°41' E 135°23'0 0.0
2014-Oct-26 14:24N 34°41' E 135°23'0 0.0
2014-Oct-26 13:30N 34°41' E 135°23'0 0.0
2014-Oct-26 12:30N 34°41' E 135°23'0 0.0
2014-Oct-26 11:24N 34°41' E 135°23'0 0.0
2014-Oct-26 10:12N 34°41' E 135°23'0 0.0
2014-Oct-26 09:24N 34°41' E 135°23'0 0.0
2014-Oct-26 08:30N 34°41' E 135°23'0 0.0
2014-Oct-26 07:30N 34°41' E 135°23'0 0.0
2014-Oct-26 06:24N 34°41' E 135°23'0 0.0
2014-Oct-26 05:30N 34°41' E 135°23'0 0.0
2014-Oct-26 04:24N 34°41' E 135°23'0 0.0
2014-Oct-26 03:30N 34°41' E 135°23'0 0.0
2014-Oct-26 02:24N 34°41' E 135°23'0 0.0
2014-Oct-26 01:30N 34°41' E 135°23'0 0.0
2014-Oct-26 00:30N 34°41' E 135°23'0 0.0
2014-Oct-25 23:24N 34°41' E 135°23'0 0.0
2014-Oct-25 22:24N 34°41' E 135°23'3 2.8
2014-Oct-25 21:11N 34°39' E 135°20'0 0.0
2014-Oct-25 20:23N 34°39' E 135°20'0 0.0
2014-Oct-25 19:29N 34°39' E 135°20'7 7.7
2014-Oct-25 18:33N 34°35' E 135°13'1616.0
2014-Oct-25 17:33N 34°35' E 134°53'11413.7
2014-Oct-25 09:11N 33°56' E 132°43'122 4.2
2014-Oct-24 04:24N 34°37' E 135°01'1113.1
2014-Oct-24 03:33N 34°37' E 135°15'8 8.2
2014-Oct-24 02:33N 34°41' E 135°23'0 0.0
2014-Oct-24 01:32N 34°41' E 135°23'0 0.0
2014-Oct-24 00:26N 34°41' E 135°23'0 0.0
2014-Oct-23 23:32N 34°41' E 135°23'2 1.7
2014-Oct-23 22:33N 34°40' E 135°22'1 0.9
2014-Oct-23 21:32N 34°40' E 135°21'0 0.0
2014-Oct-23 20:26N 34°40' E 135°21'0 0.0
2014-Oct-23 19:26N 34°40' E 135°21'910.3
2014-Oct-23 18:33N 34°35' E 135°11'1615.6
2014-Oct-23 17:33N 34°35' E 134°53'11414.1
2014-Oct-23 09:29N 33°56' E 132°43'2 0.1
2014-Oct-22 15:33N 33°58' E 132°43'11410.9
2014-Oct-22 05:07N 34°35' E 134°53'713.1
2014-Oct-22 04:33N 34°37' E 135°01'1413.6
2014-Oct-22 03:33N 34°38' E 135°18'6 5.5
2014-Oct-22 02:30N 34°41' E 135°23'0 0.0
2014-Oct-22 01:30N 34°41' E 135°23'0 0.0
2014-Oct-22 00:30N 34°41' E 135°23'0 0.0
2014-Oct-21 23:30N 34°41' E 135°23'2 2.1
2014-Oct-21 22:33N 34°40' E 135°21'1 1.1
2014-Oct-21 21:30N 34°40' E 135°20'0 0.0
2014-Oct-21 20:30N 34°40' E 135°20'0 0.0
2014-Oct-21 19:24N 34°40' E 135°20'0 0.0
2014-Oct-21 18:33N 34°40' E 135°20'1010.0
2014-Oct-21 17:33N 34°35' E 135°10'2116.0
2014-Oct-21 16:17N 34°32' E 134°45'  
Track history (hours):
 
Tides and Currents Weather Stations Pressure Air Temp Water Temp Dewpoint Dewpoint Depression Visibility Wind Speed Wind Dir Waves Ship Positions

Daihatsumaru

Last reported at 2014-Oct-31 04:33 UTC. Time now 2014-Oct-31 17:47 UTC.
Position N 34°36' E 134°56'.

Length 106 m; draft 4.5 m.

Type: Cargo ship. MMSI: 431000701.

Date/timePositionNaut miles runAvg speedWind from/ knotsBaromVisibWave heightAir tempDewpointWater temp
2014-Oct-31 04:33N 34°36' E 134°56'1615.8
2014-Oct-31 03:33N 34°37' E 135°15'8 8.5
2014-Oct-31 02:33N 34°41' E 135°23'0 0.0
2014-Oct-31 01:25N 34°41' E 135°23'0 0.0
2014-Oct-31 00:24N 34°41' E 135°23'0 0.0
2014-Oct-30 23:31N 34°41' E 135°23'2 2.3
2014-Oct-30 22:34N 34°40' E 135°21'1 0.6
2014-Oct-30 21:28N 34°40' E 135°20'0 0.0
2014-Oct-30 20:22N 34°40' E 135°20'8 9.3
2014-Oct-30 19:33N 34°35' E 135°13'1413.6
2014-Oct-30 18:33N 34°36' E 134°57'116 4.4
2014-Oct-29 16:29N 33°59' E 132°44'11210.0
2014-Oct-29 05:17N 34°35' E 134°53'1115.0
2014-Oct-29 04:33N 34°36' E 135°06'1514.6
2014-Oct-29 03:33N 34°41' E 135°23'1 0.8
2014-Oct-29 02:29N 34°41' E 135°23'0 0.0
2014-Oct-29 01:29N 34°41' E 135°23'0 0.0
2014-Oct-29 00:29N 34°41' E 135°23'2 1.0
2014-Oct-28 22:33N 34°40' E 135°21'0 0.4
2014-Oct-28 21:18N 34°40' E 135°21'0 0.0
2014-Oct-28 20:30N 34°40' E 135°21'0 0.5
2014-Oct-28 19:33N 34°40' E 135°20'1413.8
2014-Oct-28 18:33N 34°35' E 135°05'12213.1
2014-Oct-28 09:14N 33°58' E 132°44'114 3.9
2014-Oct-27 04:16N 34°36' E 134°54'1013.9
2014-Oct-27 03:34N 34°36' E 135°06'1414.3
2014-Oct-27 02:33N 34°41' E 135°22'1 0.9
2014-Oct-27 01:30N 34°41' E 135°23'0 0.0
2014-Oct-27 00:30N 34°41' E 135°23'0 0.0
2014-Oct-26 22:30N 34°41' E 135°23'0 0.0
2014-Oct-26 21:24N 34°41' E 135°23'0 0.0
2014-Oct-26 20:30N 34°41' E 135°23'0 0.0
2014-Oct-26 19:30N 34°41' E 135°23'0 0.0
2014-Oct-26 18:30N 34°41' E 135°23'0 0.0
2014-Oct-26 17:30N 34°41' E 135°23'0 0.0
2014-Oct-26 16:24N 34°41' E 135°23'0 0.0
2014-Oct-26 15:30N 34°41' E 135°23'0 0.0
2014-Oct-26 14:24N 34°41' E 135°23'0 0.0
2014-Oct-26 13:30N 34°41' E 135°23'0 0.0
2014-Oct-26 12:30N 34°41' E 135°23'0 0.0
2014-Oct-26 11:24N 34°41' E 135°23'0 0.0
2014-Oct-26 10:12N 34°41' E 135°23'0 0.0
2014-Oct-26 09:24N 34°41' E 135°23'0 0.0
2014-Oct-26 08:30N 34°41' E 135°23'0 0.0
2014-Oct-26 07:30N 34°41' E 135°23'0 0.0
2014-Oct-26 06:24N 34°41' E 135°23'0 0.0
2014-Oct-26 05:30N 34°41' E 135°23'0 0.0
2014-Oct-26 04:24N 34°41' E 135°23'0 0.0
2014-Oct-26 03:30N 34°41' E 135°23'0 0.0
2014-Oct-26 02:24N 34°41' E 135°23'0 0.0
2014-Oct-26 01:30N 34°41' E 135°23'0 0.0
2014-Oct-26 00:30N 34°41' E 135°23'0 0.0
2014-Oct-25 23:24N 34°41' E 135°23'0 0.0
2014-Oct-25 22:24N 34°41' E 135°23'3 2.8
2014-Oct-25 21:11N 34°39' E 135°20'0 0.0
2014-Oct-25 20:23N 34°39' E 135°20'0 0.0
2014-Oct-25 19:29N 34°39' E 135°20'7 7.7
2014-Oct-25 18:33N 34°35' E 135°13'1616.0
2014-Oct-25 17:33N 34°35' E 134°53'11413.7
2014-Oct-25 09:11N 33°56' E 132°43'122 4.2
2014-Oct-24 04:24N 34°37' E 135°01'1113.1
2014-Oct-24 03:33N 34°37' E 135°15'8 8.2
2014-Oct-24 02:33N 34°41' E 135°23'0 0.0
2014-Oct-24 01:32N 34°41' E 135°23'0 0.0
2014-Oct-24 00:26N 34°41' E 135°23'0 0.0
2014-Oct-23 23:32N 34°41' E 135°23'2 1.7
2014-Oct-23 22:33N 34°40' E 135°22'1 0.9
2014-Oct-23 21:32N 34°40' E 135°21'0 0.0
2014-Oct-23 20:26N 34°40' E 135°21'0 0.0
2014-Oct-23 19:26N 34°40' E 135°21'910.3
2014-Oct-23 18:33N 34°35' E 135°11'1615.6
2014-Oct-23 17:33N 34°35' E 134°53'11414.1
2014-Oct-23 09:29N 33°56' E 132°43'2 0.1
2014-Oct-22 15:33N 33°58' E 132°43'11410.9
2014-Oct-22 05:07N 34°35' E 134°53'713.1
2014-Oct-22 04:33N 34°37' E 135°01'1413.6
2014-Oct-22 03:33N 34°38' E 135°18'6 5.5
2014-Oct-22 02:30N 34°41' E 135°23'0 0.0
2014-Oct-22 01:30N 34°41' E 135°23'0 0.0
2014-Oct-22 00:30N 34°41' E 135°23'0 0.0
2014-Oct-21 23:30N 34°41' E 135°23'2 2.1
2014-Oct-21 22:33N 34°40' E 135°21'1 1.1
2014-Oct-21 21:30N 34°40' E 135°20'0 0.0
2014-Oct-21 20:30N 34°40' E 135°20'0 0.0
2014-Oct-21 19:24N 34°40' E 135°20'0 0.0
2014-Oct-21 18:33N 34°40' E 135°20'1010.0
2014-Oct-21 17:33N 34°35' E 135°10'2116.0
2014-Oct-21 16:17N 34°32' E 134°45'  

Dump ship's entire track history